Samantha, AL (35482)

5:26 AM CDT on March 28, 2015 (GMT -0500)
Samantha-Campground Road | | Change Station
CLOSE
Current Station
Personal Weather Station
Location: Northport, AL
Elevation: 459 ft
Nearby Weather Stations
Active Advisory: Frost Advisory

Elev 459 ft 33.51 °N, 87.64 °W | Updated 7 minutes ago

Partly Cloudy
Partly Cloudy
33.5 °F
Feels Like 34 °F
N
0.0
Wind Variable Wind from NNW
Gusts 8.0 mph

Today
High -- | Low -- °F
--% Chance of Precip.
Yesterday
High -- | Low -- °F
Precip. -- in
6:43 AM 7:08 PM
First Quarter, 61% visible
Pressure 30.17 in
Visibility 10.0 miles
Clouds Clear
Windchill 34 °F
Dew Point 30 °F
Humidity 86%
Rainfall 0.00 in
Snow Depth Not available.
UV 0 out of 12
Pollen 9.30 out of 12
Air Quality Not available.
Flu Activity Not available.
METAR KTCL 280953Z AUTO 32003KT 10SM CLR 03/M02 A3018 RMK AO2 SLP217 T00281017

More Conditions Fewer Conditions

Pressure 30.17 in
Visibility 10.0 miles
Clouds Clear
Windchill 34 °F
Dew Point 30 °F
Humidity 86%
Rainfall 0.00 in
Snow Depth Not available.
UV 0 out of 12
Pollen 9.30 out of 12
Air Quality Not available.
Flu Activity Not available.
METAR KTCL 280953Z AUTO 32003KT 10SM CLR 03/M02 A3018 RMK AO2 SLP217 T00281017

More Conditions Fewer Conditions

10-Day Weather Forecast

Almanac

Astronomy

Mar. 28, 2015 Rise Set
Actual Time
Civil Twilight
Nautical Twilight
Astronomical Twilight
Moon
Length of Visible Light
Length of Day
Tomorrow will be .
, % of the Moon is Illuminated

Today's Extremes

State Highs State Lows

Community

WunderPhotos

Upload Photos

1,808,946 photos uploaded!

WunderBlogs® & News

Nearby

Air Quality

  Air Quality AQ Index Pollutant
Not available.

Snow Depth

Station Depth Elevation

Earthquake Activity

City Distance Mag. Time & Date
Minimum magnitude displayed is 2.5.

Coastal Water Temperatures

Place Temperature

Stations

Nearby Weather Stations

Station Location Temp. Windchill Dew Point Humidity Wind Precip. Elev Updated Type
                   
Frost Advisory
Statement as of 4:07 AM CDT on March 28, 2015

... Frost advisory remains in effect until 9 am CDT this morning...
... Frost advisory remains in effect from 1 am to 9 am CDT
Sunday...

* temperatures... 32 to 38.

* Impacts... frost could damage sensitive outdoor plants.

Precautionary/preparedness actions...

A frost advisory means that widespread frost is expected.
Sensitive outdoor plants may be killed if left uncovered.